Time;durP1;ratioP1;P1;durP2;ratioP2;P2;SDS_P1;SDS_P2;PMS_P1;PMS_P2;Temp;Humidity;BMP_temperature;BMP_pressure;BME280_temperature;BME280_humidity;BME280_pressure;Samples;Min_cycle;Max_cycle;Signal;HPM_P1;HPM_P2
2023/03/10 00:02:22;;;;;;;11.50;6.03;;;;;;;;;;5110222;28;20031;-42
2023/03/10 00:04:54;;;;;;;10.73;6.25;;;;;;;;;;5112435;28;21052;-43
2023/03/10 00:07:21;;;;;;;11.27;6.45;;;;;;;;;;5112183;28;20054;-42
2023/03/10 00:09:47;;;;;;;15.55;5.90;;;;;;;;;;5112616;28;20080;-42
2023/03/10 00:12:13;;;;;;;12.90;6.53;;;;;;;;;;5112047;28;20524;-42
2023/03/10 00:14:39;;;;;;;10.90;6.10;;;;;;;;;;5112045;28;20024;-42
2023/03/10 00:17:05;;;;;;;11.55;6.65;;;;;;;;;;5112279;28;20111;-43
2023/03/10 00:19:31;;;;;;;10.30;5.88;;;;;;;;;;5111727;28;20094;-43
2023/03/10 00:21:57;;;;;;;11.05;6.05;;;;;;;;;;5111713;28;20103;-42
2023/03/10 00:24:24;;;;;;;10.40;5.85;;;;;;;;;;5111651;28;20502;-43
2023/03/10 00:26:51;;;;;;;8.80;5.78;;;;;;;;;;5111999;28;20027;-42
2023/03/10 00:29:17;;;;;;;10.27;5.20;;;;;;;;;;5112816;28;20050;-42
2023/03/10 00:31:44;;;;;;;9.88;4.68;;;;;;;;;;5112424;28;20033;-43
2023/03/10 00:34:10;;;;;;;8.05;4.57;;;;;;;;;;5111653;28;20377;-43
2023/03/10 00:36:38;;;;;;;8.23;4.60;;;;;;;;;;5111826;28;20361;-42
2023/03/10 00:39:04;;;;;;;8.15;4.90;;;;;;;;;;5111420;28;20088;-42
2023/03/10 00:41:32;;;;;;;7.25;3.88;;;;;;;;;;5111957;28;20616;-42
2023/03/10 00:43:59;;;;;;;8.57;4.15;;;;;;;;;;5108821;28;20462;-42
2023/03/10 00:46:26;;;;;;;6.90;4.22;;;;;;;;;;5108365;28;20031;-42
2023/03/10 00:48:53;;;;;;;6.57;3.47;;;;;;;;;;5108248;28;20023;-42
2023/03/10 00:51:19;;;;;;;6.80;3.80;;;;;;;;;;5108920;28;20531;-43
2023/03/10 00:53:46;;;;;;;8.00;3.65;;;;;;;;;;5108895;28;20019;-43
2023/03/10 00:56:17;;;;;;;5.55;2.90;;;;;;;;;;5108331;28;20095;-43
2023/03/10 00:58:44;;;;;;;5.25;2.97;;;;;;;;;;5108214;28;20056;-42
2023/03/10 01:01:13;;;;;;;5.68;2.40;;;;;;;;;;5108117;28;20034;-42
2023/03/10 01:03:39;;;;;;;4.10;2.63;;;;;;;;;;5107915;28;20042;-42
2023/03/10 06:12:28;;;;;;;1.95;1.13;;;;;;;;;;5123064;27;20049;-41
2023/03/10 06:14:55;;;;;;;1.40;0.93;;;;;;;;;;5108319;28;20046;-40
2023/03/10 06:17:22;;;;;;;1.67;1.08;;;;;;;;;;5108859;28;20028;-40
2023/03/10 06:19:48;;;;;;;2.05;0.90;;;;;;;;;;5108338;28;20031;-40
2023/03/10 06:22:14;;;;;;;1.27;0.77;;;;;;;;;;5108506;28;20023;-40
2023/03/10 06:24:41;;;;;;;1.73;0.80;;;;;;;;;;5108632;28;20308;-40
2023/03/10 06:27:07;;;;;;;1.25;0.82;;;;;;;;;;5108262;28;20027;-41
2023/03/10 06:29:34;;;;;;;2.10;1.13;;;;;;;;;;5107979;28;20020;-41
2023/03/10 06:32:01;;;;;;;3.40;1.40;;;;;;;;;;5108332;28;20446;-41
2023/03/10 06:34:26;;;;;;;2.60;1.13;;;;;;;;;;5108290;28;20102;-40
2023/03/10 06:36:54;;;;;;;5.60;1.40;;;;;;;;;;5107918;28;20550;-41
2023/03/10 06:39:20;;;;;;;2.28;1.00;;;;;;;;;;5109319;28;20442;-40
2023/03/10 06:41:46;;;;;;;2.45;1.08;;;;;;;;;;5108302;28;20038;-40
2023/03/10 06:44:17;;;;;;;2.88;1.25;;;;;;;;;;5109369;28;20058;-41
2023/03/10 06:46:44;;;;;;;4.53;1.20;;;;;;;;;;5109443;28;20089;-41
2023/03/10 06:49:10;;;;;;;5.53;1.40;;;;;;;;;;5109224;28;20035;-40
2023/03/10 06:51:36;;;;;;;2.97;1.40;;;;;;;;;;5109027;28;20030;-41
2023/03/10 06:54:02;;;;;;;5.88;1.63;;;;;;;;;;5109140;28;20031;-41
2023/03/10 06:56:28;;;;;;;4.40;1.20;;;;;;;;;;5109479;28;20077;-40
2023/03/10 06:58:54;;;;;;;3.22;1.58;;;;;;;;;;5109321;28;20054;-41
2023/03/10 07:01:25;;;;;;;2.58;1.10;;;;;;;;;;5109087;28;20031;-40
2023/03/10 07:03:52;;;;;;;4.07;1.55;;;;;;;;;;5109242;28;20068;-40
2023/03/10 07:06:18;;;;;;;5.72;2.03;;;;;;;;;;5109430;28;20037;-41
2023/03/10 07:08:44;;;;;;;5.50;1.75;;;;;;;;;;5109060;28;20028;-41
2023/03/10 07:11:10;;;;;;;6.47;1.73;;;;;;;;;;5109226;28;20115;-41
2023/03/10 07:13:37;;;;;;;7.10;1.60;;;;;;;;;;5108927;28;20578;-41
2023/03/10 07:16:03;;;;;;;12.10;2.63;;;;;;;;;;5108972;28;20027;-40
2023/03/10 07:18:29;;;;;;;7.47;1.85;;;;;;;;;;5109259;28;20395;-41
2023/03/10 07:20:56;;;;;;;6.38;1.80;;;;;;;;;;5109078;28;20027;-41
2023/03/10 07:23:22;;;;;;;6.85;1.50;;;;;;;;;;5108618;28;20086;-41
2023/03/10 07:25:56;;;;;;;4.53;1.60;;;;;;;;;;5108932;28;20498;-41
2023/03/10 07:28:23;;;;;;;7.40;1.60;;;;;;;;;;5108728;28;20030;-41
2023/03/10 07:30:49;;;;;;;4.75;1.80;;;;;;;;;;5107795;28;20032;-41
2023/03/10 07:33:15;;;;;;;8.27;1.80;;;;;;;;;;5108796;28;20076;-41
2023/03/10 07:35:41;;;;;;;4.55;1.40;;;;;;;;;;5109098;28;20024;-41
2023/03/10 07:38:08;;;;;;;6.60;1.63;;;;;;;;;;5108470;28;20062;-41
2023/03/10 07:40:35;;;;;;;6.78;1.70;;;;;;;;;;5108974;28;20034;-41
2023/03/10 07:43:01;;;;;;;8.32;1.70;;;;;;;;;;5108292;28;20517;-41
2023/03/10 07:45:29;;;;;;;7.32;1.83;;;;;;;;;;5108999;28;20035;-41
2023/03/10 07:47:55;;;;;;;11.50;2.10;;;;;;;;;;5108605;28;20031;-41
2023/03/10 07:50:21;;;;;;;6.47;1.88;;;;;;;;;;5108592;28;20509;-41
2023/03/10 07:52:47;;;;;;;5.95;1.50;;;;;;;;;;5108931;28;20023;-41
2023/03/10 07:55:14;;;;;;;8.00;1.75;;;;;;;;;;5112679;28;20872;-41
2023/03/10 07:57:41;;;;;;;8.70;1.75;;;;;;;;;;5111963;28;20034;-41
2023/03/10 08:00:07;;;;;;;6.30;1.70;;;;;;;;;;5112078;28;20398;-41
2023/03/10 08:02:33;;;;;;;7.43;1.67;;;;;;;;;;5112578;28;20026;-40
2023/03/10 08:05:00;;;;;;;2.95;0.98;;;;;;;;;;5112388;28;20031;-41
2023/03/10 08:07:26;;;;;;;4.88;1.45;;;;;;;;;;5112088;28;20023;-40
2023/03/10 08:09:53;;;;;;;5.97;1.20;;;;;;;;;;5112447;28;20452;-41
2023/03/10 08:12:19;;;;;;;2.00;0.90;;;;;;;;;;5112290;28;20028;-41
2023/03/10 08:14:45;;;;;;;2.35;1.25;;;;;;;;;;5112413;28;20082;-41
2023/03/10 08:17:11;;;;;;;3.70;0.90;;;;;;;;;;5112422;28;20546;-41
2023/03/10 08:19:38;;;;;;;2.30;1.20;;;;;;;;;;5112380;28;20059;-40
2023/03/10 08:22:05;;;;;;;2.85;1.08;;;;;;;;;;5111828;28;20098;-41
2023/03/10 08:24:31;;;;;;;5.05;1.52;;;;;;;;;;5112343;28;20031;-40
2023/03/10 08:26:57;;;;;;;3.30;1.70;;;;;;;;;;5112345;28;20027;-41
2023/03/10 08:29:23;;;;;;;2.20;1.00;;;;;;;;;;5111869;28;20579;-41
2023/03/10 08:31:49;;;;;;;2.97;0.90;;;;;;;;;;5111795;28;20551;-40
2023/03/10 08:34:15;;;;;;;3.58;1.17;;;;;;;;;;5112071;28;20031;-41
2023/03/10 08:36:42;;;;;;;2.50;1.10;;;;;;;;;;5111884;28;20041;-41
2023/03/10 08:39:08;;;;;;;1.85;0.90;;;;;;;;;;5112017;28;20074;-41
2023/03/10 08:41:41;;;;;;;1.38;0.80;;;;;;;;;;5111948;28;20019;-41
2023/03/10 08:44:10;;;;;;;0.98;0.65;;;;;;;;;;5111532;28;20032;-41
2023/03/10 08:46:36;;;;;;;0.60;0.50;;;;;;;;;;5111971;28;20015;-40
2023/03/10 08:49:02;;;;;;;1.85;0.65;;;;;;;;;;5111622;28;20403;-41
2023/03/10 08:51:29;;;;;;;2.42;0.90;;;;;;;;;;5111642;28;20096;-41
2023/03/10 08:53:55;;;;;;;1.48;0.70;;;;;;;;;;5111737;28;20027;-40
2023/03/10 08:56:22;;;;;;;5.10;1.40;;;;;;;;;;5111551;28;20061;-41
2023/03/10 08:58:49;;;;;;;4.35;1.33;;;;;;;;;;5110911;28;20036;-41
2023/03/10 09:01:16;;;;;;;3.17;1.15;;;;;;;;;;5110816;28;20023;-41
2023/03/10 09:03:43;;;;;;;3.55;1.00;;;;;;;;;;5106684;28;20039;-41
2023/03/10 09:06:09;;;;;;;1.58;0.70;;;;;;;;;;5109947;28;20035;-40
2023/03/10 09:08:35;;;;;;;2.33;0.85;;;;;;;;;;5112162;28;20027;-40
2023/03/10 09:11:02;;;;;;;2.92;0.80;;;;;;;;;;5111792;28;20030;-40
2023/03/10 09:13:28;;;;;;;1.17;0.80;;;;;;;;;;5117993;27;20072;-41
2023/03/10 09:15:54;;;;;;;2.30;0.85;;;;;;;;;;5132092;27;20498;-41
2023/03/10 09:18:20;;;;;;;1.88;0.60;;;;;;;;;;5132462;27;20046;-41
2023/03/10 09:20:46;;;;;;;0.55;0.40;;;;;;;;;;5131934;27;20528;-41
2023/03/10 09:23:13;;;;;;;0.47;0.45;;;;;;;;;;5130649;27;20493;-40
2023/03/10 09:25:40;;;;;;;1.13;0.50;;;;;;;;;;5122515;27;20034;-41
2023/03/10 09:28:06;;;;;;;0.88;0.60;;;;;;;;;;5130409;27;20051;-41
2023/03/10 09:30:36;;;;;;;0.50;0.50;;;;;;;;;;5131484;27;20035;-41
2023/03/10 09:33:02;;;;;;;3.00;1.08;;;;;;;;;;5131294;27;20057;-41
2023/03/10 09:35:28;;;;;;;4.93;1.40;;;;;;;;;;5131701;27;20110;-41
2023/03/10 09:37:54;;;;;;;3.15;1.30;;;;;;;;;;5129617;27;20107;-41
2023/03/10 09:40:21;;;;;;;1.67;0.77;;;;;;;;;;5132115;27;20035;-41
2023/03/10 09:42:55;;;;;;;2.85;0.68;;;;;;;;;;5129155;27;20114;-41
2023/03/10 09:45:33;;;;;;;0.60;0.60;;;;;;;;;;5131853;27;20532;-41
2023/03/10 09:48:18;;;;;;;1.08;0.60;;;;;;;;;;5128486;27;20023;-41
2023/03/10 09:50:48;;;;;;;1.00;0.60;;;;;;;;;;5112984;27;20036;-40
2023/03/10 09:53:21;;;;;;;2.25;0.60;;;;;;;;;;5129771;27;20023;-41
2023/03/10 09:55:47;;;;;;;3.38;0.70;;;;;;;;;;5131765;27;20152;-41
2023/03/10 09:58:17;;;;;;;4.93;1.50;;;;;;;;;;5129986;27;20125;-41
2023/03/10 10:00:44;;;;;;;3.85;1.63;;;;;;;;;;5129847;27;20117;-41
2023/03/10 10:03:21;;;;;;;5.95;1.23;;;;;;;;;;5128283;27;20028;-41
2023/03/10 10:05:51;;;;;;;6.18;1.10;;;;;;;;;;5129012;27;20142;-41
2023/03/10 10:08:34;;;;;;;4.35;1.15;;;;;;;;;;5128586;27;20034;-41
2023/03/10 10:11:00;;;;;;;4.85;1.58;;;;;;;;;;5111285;27;20027;-41
2023/03/10 10:13:29;;;;;;;4.07;1.58;;;;;;;;;;5117265;27;20020;-41
2023/03/10 10:16:02;;;;;;;4.63;1.30;;;;;;;;;;5101596;28;20085;-41
2023/03/10 10:18:28;;;;;;;2.92;0.63;;;;;;;;;;5107267;28;20387;-40
2023/03/10 10:21:15;;;;;;;1.88;1.30;;;;;;;;;;5108786;28;20467;-41
2023/03/10 10:23:48;;;;;;;2.72;0.82;;;;;;;;;;5106713;28;20425;-41
2023/03/10 10:26:16;;;;;;;4.10;0.93;;;;;;;;;;5107609;28;20388;-41
2023/03/10 10:28:45;;;;;;;2.95;1.10;;;;;;;;;;5107774;28;20395;-41
2023/03/10 10:31:16;;;;;;;5.70;1.30;;;;;;;;;;5108874;28;20020;-41
2023/03/10 10:33:54;;;;;;;6.22;1.75;;;;;;;;;;5107657;28;20019;-41
2023/03/10 10:36:23;;;;;;;3.28;1.10;;;;;;;;;;5108359;28;20031;-41
2023/03/10 10:38:50;;;;;;;2.55;1.00;;;;;;;;;;5107666;28;20495;-41
2023/03/10 10:41:19;;;;;;;3.22;1.00;;;;;;;;;;5107712;28;20031;-41
2023/03/10 10:43:47;;;;;;;3.75;1.23;;;;;;;;;;5107447;28;20149;-41
2023/03/10 10:46:14;;;;;;;3.47;1.25;;;;;;;;;;5108631;28;20031;-41
2023/03/10 10:48:44;;;;;;;3.50;1.00;;;;;;;;;;5107624;28;20411;-41
2023/03/10 10:51:31;;;;;;;3.22;1.30;;;;;;;;;;5107875;28;20028;-41
2023/03/10 10:54:03;;;;;;;2.15;1.00;;;;;;;;;;5106055;28;20031;-41
2023/03/10 10:56:30;;;;;;;3.97;1.00;;;;;;;;;;5106722;28;20302;-41
2023/03/10 10:59:14;;;;;;;3.25;1.10;;;;;;;;;;5108452;28;20035;-41
2023/03/10 11:01:46;;;;;;;3.90;1.15;;;;;;;;;;5108791;28;20057;-41
2023/03/10 11:04:13;;;;;;;5.85;1.58;;;;;;;;;;5108577;28;20031;-41
2023/03/10 11:06:39;;;;;;;8.73;1.80;;;;;;;;;;5109688;28;20039;-41
2023/03/10 11:09:17;;;;;;;4.82;1.73;;;;;;;;;;5109363;28;20028;-41
2023/03/10 11:11:50;;;;;;;5.55;1.55;;;;;;;;;;5109722;28;20022;-41
2023/03/10 11:14:16;;;;;;;7.55;2.05;;;;;;;;;;5123424;27;20037;-41
2023/03/10 11:16:47;;;;;;;10.40;2.47;;;;;;;;;;5129598;27;20467;-41
2023/03/10 11:19:33;;;;;;;12.25;2.72;;;;;;;;;;5130616;27;20038;-41
2023/03/10 11:22:06;;;;;;;19.50;3.13;;;;;;;;;;5130236;27;20024;-41
2023/03/10 11:24:42;;;;;;;16.75;3.10;;;;;;;;;;5128882;27;20383;-41
2023/03/10 11:27:14;;;;;;;21.48;3.28;;;;;;;;;;5129555;27;20419;-41
2023/03/10 11:29:52;;;;;;;23.60;3.25;;;;;;;;;;5128374;27;20034;-41
2023/03/10 11:32:37;;;;;;;12.93;3.08;;;;;;;;;;5125150;27;20031;-41
2023/03/10 11:35:13;;;;;;;16.20;3.15;;;;;;;;;;5128857;28;20031;-42
2023/03/10 11:38:02;;;;;;;13.43;2.75;;;;;;;;;;5128854;27;20020;-41
2023/03/10 11:40:28;;;;;;;11.25;2.40;;;;;;;;;;5128341;27;20041;-41
2023/03/10 11:42:55;;;;;;;14.35;3.08;;;;;;;;;;5127434;28;20122;-42
2023/03/10 11:45:28;;;;;;;16.23;2.78;;;;;;;;;;5128766;28;20035;-41
2023/03/10 11:47:58;;;;;;;11.13;3.17;;;;;;;;;;5128655;28;20031;-42
2023/03/10 11:50:32;;;;;;;7.90;2.42;;;;;;;;;;5128168;28;20415;-42
2023/03/10 11:53:05;;;;;;;8.27;2.25;;;;;;;;;;5128480;28;20023;-43
2023/03/10 11:55:31;;;;;;;9.68;1.88;;;;;;;;;;5128996;28;20091;-51
2023/03/10 11:57:59;;;;;;;7.85;2.10;;;;;;;;;;5130903;27;20027;-42
2023/03/10 12:00:30;;;;;;;8.00;1.88;;;;;;;;;;5129561;28;20023;-42
2023/03/10 12:03:06;;;;;;;13.70;3.38;;;;;;;;;;5129688;28;20019;-43
2023/03/10 12:05:44;;;;;;;8.00;1.70;;;;;;;;;;5129395;28;20054;-42
2023/03/10 12:08:12;;;;;;;7.28;2.03;;;;;;;;;;5130181;28;20493;-42
2023/03/10 12:10:40;;;;;;;7.10;1.80;;;;;;;;;;5129340;27;20028;-42
2023/03/10 12:13:13;;;;;;;5.07;1.58;;;;;;;;;;5128122;28;20114;-43
2023/03/10 12:15:40;;;;;;;6.13;1.65;;;;;;;;;;5126570;28;20405;-42
2023/03/10 12:18:07;;;;;;;8.35;2.30;;;;;;;;;;5126311;28;20519;-42
2023/03/10 12:20:34;;;;;;;9.10;1.73;;;;;;;;;;5128879;28;20102;-41
2023/03/10 12:23:20;;;;;;;7.82;1.92;;;;;;;;;;5128661;28;20022;-43
2023/03/10 12:25:47;;;;;;;8.40;1.98;;;;;;;;;;5117571;27;20041;-42
2023/03/10 12:28:16;;;;;;;6.43;1.65;;;;;;;;;;5128699;28;20072;-43
2023/03/10 12:30:45;;;;;;;7.82;2.00;;;;;;;;;;5128940;28;20023;-43
2023/03/10 12:33:30;;;;;;;8.38;2.15;;;;;;;;;;5128711;28;20020;-42
2023/03/10 12:35:56;;;;;;;;;;;;;;;;;;5129046;28;20033;-43
2023/03/10 12:38:28;;;;;;;6.13;1.40;;;;;;;;;;5128387;27;19907;-42
2023/03/10 12:40:54;;;;;;;8.45;1.73;;;;;;;;;;5130019;27;20042;-43
2023/03/10 12:43:38;;;;;;;4.68;1.20;;;;;;;;;;5146620;27;20064;-44
2023/03/10 12:46:06;;;;;;;4.93;1.50;;;;;;;;;;5138054;27;20019;-43
2023/03/10 12:48:34;;;;;;;8.15;1.90;;;;;;;;;;5130558;27;20426;-43
2023/03/10 12:51:03;;;;;;;6.60;1.40;;;;;;;;;;5131473;27;20027;-43
2023/03/10 12:53:37;;;;;;;4.47;1.33;;;;;;;;;;5130171;27;20027;-43
2023/03/10 12:56:12;;;;;;;7.80;2.05;;;;;;;;;;5130001;27;20486;-43
2023/03/10 12:58:40;;;;;;;5.32;1.48;;;;;;;;;;5130372;27;20502;-43
2023/03/10 13:01:11;;;;;;;7.63;1.58;;;;;;;;;;5130237;27;20501;-43
2023/03/10 13:03:45;;;;;;;6.82;1.88;;;;;;;;;;5130354;27;20409;-43
2023/03/10 13:06:19;;;;;;;5.75;1.65;;;;;;;;;;5130861;27;20027;-43
2023/03/10 13:09:00;;;;;;;5.57;1.55;;;;;;;;;;5130495;27;20546;-43
2023/03/10 13:11:26;;;;;;;6.40;1.80;;;;;;;;;;5130015;27;20490;-43
2023/03/10 13:14:10;;;;;;;8.88;1.98;;;;;;;;;;5130618;27;20028;-45
2023/03/10 13:16:36;;;;;;;8.38;2.40;;;;;;;;;;5130371;27;20027;-44
2023/03/10 13:19:03;;;;;;;8.57;2.28;;;;;;;;;;5130176;27;20503;-44
2023/03/10 13:21:30;;;;;;;6.57;2.00;;;;;;;;;;5130102;27;20407;-45
2023/03/10 13:23:57;;;;;;;8.55;2.35;;;;;;;;;;5130113;27;20077;-44
2023/03/10 13:26:24;;;;;;;12.20;2.10;;;;;;;;;;5129603;27;20023;-44
2023/03/10 13:28:57;;;;;;;9.88;2.08;;;;;;;;;;5129958;27;20102;-45
2023/03/10 13:31:27;;;;;;;15.65;2.88;;;;;;;;;;5130024;27;20126;-44
2023/03/10 13:33:54;;;;;;;8.68;1.95;;;;;;;;;;5130269;27;20071;-44
2023/03/10 13:36:26;;;;;;;9.50;2.38;;;;;;;;;;5129914;27;20095;-45
2023/03/10 13:38:55;;;;;;;6.85;1.98;;;;;;;;;;5129896;27;20019;-44
2023/03/10 13:41:21;;;;;;;7.38;2.30;;;;;;;;;;5129463;27;20426;-45
2023/03/10 13:43:48;;;;;;;10.45;2.58;;;;;;;;;;5129744;27;20106;-46
2023/03/10 13:46:18;;;;;;;7.85;2.30;;;;;;;;;;5129920;27;20030;-44
2023/03/10 13:48:45;;;;;;;7.05;2.17;;;;;;;;;;5130015;27;20055;-44
2023/03/10 13:51:14;;;;;;;9.52;2.22;;;;;;;;;;5129379;27;20086;-45
2023/03/10 13:53:40;;;;;;;9.40;2.40;;;;;;;;;;5129921;27;20019;-44
2023/03/10 13:56:18;;;;;;;7.60;1.83;;;;;;;;;;5129314;27;20031;-44
2023/03/10 13:58:45;;;;;;;5.97;2.13;;;;;;;;;;5129863;27;20027;-45
2023/03/10 14:01:31;;;;;;;11.02;2.00;;;;;;;;;;5129575;27;20027;-44
2023/03/10 14:03:58;;;;;;;10.05;3.35;;;;;;;;;;5129390;27;20102;-45
2023/03/10 14:06:25;;;;;;;10.45;2.20;;;;;;;;;;5129474;27;20030;-45
2023/03/10 14:08:52;;;;;;;9.38;2.47;;;;;;;;;;5129398;27;20029;-45
2023/03/10 14:11:21;;;;;;;8.05;2.08;;;;;;;;;;5128869;27;20032;-46
2023/03/10 14:13:48;;;;;;;10.30;2.60;;;;;;;;;;5116252;27;20244;-44
2023/03/10 14:16:14;;;;;;;10.10;2.10;;;;;;;;;;5108852;28;20236;-44
2023/03/10 14:18:41;;;;;;;10.98;2.67;;;;;;;;;;5108541;28;20397;-43
2023/03/10 14:21:31;;;;;;;7.13;1.65;;;;;;;;;;5108337;28;20036;-44
2023/03/10 14:24:10;;;;;;;7.70;2.10;;;;;;;;;;5108209;28;20020;-45
2023/03/10 14:26:37;;;;;;;11.00;1.80;;;;;;;;;;5108438;28;20051;-44
2023/03/10 14:29:05;;;;;;;8.05;2.15;;;;;;;;;;5108691;28;20286;-45
2023/03/10 14:31:31;;;;;;;6.75;1.88;;;;;;;;;;5108265;28;20027;-44
2023/03/10 14:33:57;;;;;;;15.80;2.78;;;;;;;;;;5089849;28;20085;-44
2023/03/10 14:36:23;;;;;;;10.88;2.30;;;;;;;;;;5089785;28;20059;-44
2023/03/10 14:38:49;;;;;;;12.30;2.50;;;;;;;;;;5107816;28;20038;-44
2023/03/10 14:41:23;;;;;;;6.68;2.13;;;;;;;;;;5107995;28;20119;-43
2023/03/10 14:43:49;;;;;;;7.90;2.00;;;;;;;;;;5108156;28;20114;-45
2023/03/10 14:46:16;;;;;;;7.65;2.55;;;;;;;;;;5108162;28;20261;-43
2023/03/10 14:48:44;;;;;;;6.13;2.17;;;;;;;;;;5108231;28;20034;-45
2023/03/10 14:51:12;;;;;;;7.05;2.10;;;;;;;;;;5107920;28;20298;-44
2023/03/10 14:53:38;;;;;;;5.90;2.00;;;;;;;;;;5089743;28;20438;-44
2023/03/10 14:56:04;;;;;;;13.38;3.08;;;;;;;;;;5107840;28;20051;-45
2023/03/10 14:58:36;;;;;;;8.05;1.67;;;;;;;;;;5107926;28;20034;-45
2023/03/10 15:01:02;;;;;;;8.57;2.65;;;;;;;;;;5107853;28;20066;-45
2023/03/10 15:03:29;;;;;;;9.38;2.20;;;;;;;;;;5088856;28;20027;-44
2023/03/10 15:05:55;;;;;;;4.70;2.03;;;;;;;;;;5107787;28;20076;-44
2023/03/10 15:08:22;;;;;;;7.85;1.95;;;;;;;;;;5107555;28;20036;-46
2023/03/10 15:10:50;;;;;;;6.22;1.70;;;;;;;;;;5107552;28;20015;-44
2023/03/10 15:13:20;;;;;;;6.07;1.63;;;;;;;;;;5107534;28;20376;-44
2023/03/10 15:15:47;;;;;;;6.82;1.95;;;;;;;;;;5107801;28;20406;-44
2023/03/10 15:18:15;;;;;;;5.38;1.80;;;;;;;;;;5108121;28;20384;-45
2023/03/10 15:20:42;;;;;;;5.97;2.10;;;;;;;;;;5107754;28;20046;-45
2023/03/10 15:23:09;;;;;;;6.78;2.00;;;;;;;;;;5107063;28;20042;-45
2023/03/10 15:25:35;;;;;;;8.10;2.03;;;;;;;;;;5107425;28;20023;-46
2023/03/10 15:28:02;;;;;;;9.50;2.25;;;;;;;;;;5107480;28;20019;-45
2023/03/10 15:30:29;;;;;;;8.50;2.13;;;;;;;;;;5107485;28;20028;-46
2023/03/10 15:32:55;;;;;;;7.28;2.20;;;;;;;;;;5107295;28;20401;-44
2023/03/10 15:35:21;;;;;;;5.88;1.70;;;;;;;;;;5107903;28;20488;-45
2023/03/10 15:37:48;;;;;;;11.88;2.47;;;;;;;;;;5107206;28;20034;-45
2023/03/10 15:40:19;;;;;;;9.20;2.40;;;;;;;;;;5107452;28;20512;-44
2023/03/10 15:42:46;;;;;;;5.28;2.00;;;;;;;;;;5107423;28;20042;-44
2023/03/10 15:45:13;;;;;;;6.45;1.80;;;;;;;;;;5107520;28;20107;-45
2023/03/10 15:47:39;;;;;;;9.27;2.33;;;;;;;;;;5107471;28;20161;-44
2023/03/10 15:50:06;;;;;;;9.73;2.22;;;;;;;;;;5107236;28;20034;-45
2023/03/10 15:52:32;;;;;;;7.63;1.95;;;;;;;;;;5088727;28;20028;-44
2023/03/10 15:54:59;;;;;;;13.02;2.53;;;;;;;;;;5107110;28;20022;-45
2023/03/10 15:57:25;;;;;;;6.28;1.80;;;;;;;;;;5107180;28;20023;-45
2023/03/10 15:59:51;;;;;;;7.70;1.92;;;;;;;;;;5107181;28;20024;-45
2023/03/10 16:02:17;;;;;;;10.65;2.55;;;;;;;;;;5107039;28;20087;-47
2023/03/10 16:04:43;;;;;;;9.25;2.28;;;;;;;;;;5107411;28;20020;-45
2023/03/10 16:07:09;;;;;;;6.75;1.65;;;;;;;;;;5106955;28;20027;-45
2023/03/10 16:09:36;;;;;;;7.72;2.42;;;;;;;;;;5107049;28;20079;-44
2023/03/10 16:12:02;;;;;;;7.68;1.90;;;;;;;;;;5088383;28;20421;-45
2023/03/10 16:14:29;;;;;;;3.80;1.50;;;;;;;;;;5108505;28;20081;-48
2023/03/10 16:16:57;;;;;;;5.80;1.80;;;;;;;;;;5110541;28;20027;-45
2023/03/10 16:19:23;;;;;;;6.95;1.80;;;;;;;;;;5110893;28;20081;-45
2023/03/10 16:21:51;;;;;;;6.50;1.88;;;;;;;;;;5112115;28;20092;-45
2023/03/10 16:24:17;;;;;;;7.82;1.80;;;;;;;;;;5111948;28;20012;-44
2023/03/10 16:26:43;;;;;;;6.20;1.73;;;;;;;;;;5107059;28;20023;-45
2023/03/10 16:29:09;;;;;;;7.10;2.10;;;;;;;;;;5111679;28;20069;-45
2023/03/10 16:31:37;;;;;;;5.75;2.10;;;;;;;;;;5111688;28;20031;-45
2023/03/10 16:34:04;;;;;;;5.22;1.50;;;;;;;;;;5111586;28;20016;-48
2023/03/10 16:36:32;;;;;;;6.07;1.80;;;;;;;;;;5110307;28;20453;-45
2023/03/10 16:38:59;;;;;;;5.80;2.25;;;;;;;;;;5097946;28;20032;-45
2023/03/10 16:41:26;;;;;;;4.90;1.45;;;;;;;;;;5101488;28;20028;-45
2023/03/10 16:43:53;;;;;;;5.30;1.45;;;;;;;;;;5111377;28;20036;-43
2023/03/10 16:46:24;;;;;;;5.65;1.58;;;;;;;;;;5111363;28;20046;-46
2023/03/10 16:48:51;;;;;;;6.15;2.30;;;;;;;;;;5110889;28;20028;-45
2023/03/10 16:51:23;;;;;;;6.90;1.65;;;;;;;;;;5100778;28;20032;-45
2023/03/10 16:53:50;;;;;;;5.22;1.73;;;;;;;;;;5110788;28;20051;-47
2023/03/10 16:56:16;;;;;;;9.48;2.33;;;;;;;;;;5112424;28;20034;-45
2023/03/10 16:58:42;;;;;;;5.45;2.03;;;;;;;;;;5112503;28;20426;-45
2023/03/10 17:01:08;;;;;;;9.35;2.08;;;;;;;;;;5112458;28;20390;-46
2023/03/10 17:03:38;;;;;;;7.63;2.08;;;;;;;;;;5110638;28;20042;-44
2023/03/10 17:06:08;;;;;;;6.47;1.70;;;;;;;;;;5111036;28;20030;-45
2023/03/10 17:08:34;;;;;;;5.07;1.83;;;;;;;;;;5110992;28;20024;-45
2023/03/10 17:11:00;;;;;;;7.47;2.10;;;;;;;;;;5111139;28;20483;-45
2023/03/10 17:13:28;;;;;;;6.22;2.05;;;;;;;;;;5110996;28;20024;-46
2023/03/10 17:15:54;;;;;;;7.78;3.10;;;;;;;;;;5111237;28;20107;-46
2023/03/10 17:18:20;;;;;;;8.38;3.03;;;;;;;;;;5110146;28;20099;-45
2023/03/10 17:20:46;;;;;;;8.70;2.80;;;;;;;;;;5111362;28;20115;-44
2023/03/10 17:23:12;;;;;;;6.43;1.98;;;;;;;;;;5110187;28;20019;-46
2023/03/10 17:25:41;;;;;;;11.15;2.72;;;;;;;;;;5109508;28;20027;-46
2023/03/10 17:28:07;;;;;;;7.43;2.42;;;;;;;;;;5109420;28;20506;-49
2023/03/10 17:30:33;;;;;;;4.93;1.88;;;;;;;;;;5110456;28;20130;-46
2023/03/10 17:32:59;;;;;;;10.95;2.72;;;;;;;;;;5110434;28;20023;-46
2023/03/10 17:35:25;;;;;;;10.32;2.10;;;;;;;;;;5109794;28;20031;-46
2023/03/10 17:37:51;;;;;;;11.65;3.50;;;;;;;;;;5108056;28;20106;-46
2023/03/10 17:40:20;;;;;;;10.25;2.70;;;;;;;;;;5107016;28;20110;-45
2023/03/10 17:42:46;;;;;;;11.57;3.70;;;;;;;;;;5095143;28;20031;-46
2023/03/10 17:45:12;;;;;;;7.45;2.45;;;;;;;;;;5108184;28;20405;-46
2023/03/10 17:47:38;;;;;;;8.85;2.65;;;;;;;;;;5090118;28;20545;-47
2023/03/10 17:50:04;;;;;;;8.82;2.03;;;;;;;;;;5107621;28;20111;-46
2023/03/10 17:52:30;;;;;;;11.32;2.38;;;;;;;;;;5104559;28;20498;-46
2023/03/10 17:54:56;;;;;;;11.88;2.40;;;;;;;;;;5109062;28;20039;-45
2023/03/10 17:57:22;;;;;;;9.02;2.42;;;;;;;;;;5090357;28;20114;-46
2023/03/10 17:59:49;;;;;;;9.65;2.00;;;;;;;;;;5109115;28;20587;-45
2023/03/10 18:02:16;;;;;;;6.35;1.75;;;;;;;;;;5108900;28;20588;-46
2023/03/10 18:04:45;;;;;;;7.32;1.80;;;;;;;;;;5109338;28;20156;-46
2023/03/10 18:07:12;;;;;;;7.43;1.60;;;;;;;;;;5105645;28;20041;-46
2023/03/10 18:09:38;;;;;;;11.40;2.20;;;;;;;;;;5106131;28;20036;-45
2023/03/10 18:12:05;;;;;;;7.97;2.00;;;;;;;;;;5097934;28;20525;-46
2023/03/10 18:14:31;;;;;;;6.72;2.15;;;;;;;;;;5102682;28;20063;-45
2023/03/10 18:16:57;;;;;;;3.33;1.50;;;;;;;;;;5104750;28;20034;-46
2023/03/10 18:19:23;;;;;;;7.38;2.00;;;;;;;;;;5105371;28;20031;-46
2023/03/10 18:21:50;;;;;;;7.78;2.72;;;;;;;;;;5105554;28;20502;-46
2023/03/10 18:24:17;;;;;;;5.70;2.33;;;;;;;;;;5100288;28;20024;-49
2023/03/10 18:26:44;;;;;;;7.40;2.08;;;;;;;;;;5105166;28;20031;-48
2023/03/10 18:29:10;;;;;;;7.68;2.00;;;;;;;;;;5103628;28;20554;-49
2023/03/10 18:31:37;;;;;;;7.00;2.33;;;;;;;;;;5104932;28;20031;-48
2023/03/10 18:34:04;;;;;;;7.13;2.22;;;;;;;;;;5102147;28;20163;-48
2023/03/10 18:36:31;;;;;;;4.30;1.95;;;;;;;;;;5103832;28;20023;-45
2023/03/10 18:38:58;;;;;;;3.65;1.70;;;;;;;;;;5104165;28;20038;-46
2023/03/10 18:41:25;;;;;;;4.97;1.67;;;;;;;;;;5103439;28;20023;-48
2023/03/10 18:43:52;;;;;;;4.97;1.83;;;;;;;;;;5106004;28;20035;-46
2023/03/10 18:46:19;;;;;;;4.30;2.13;;;;;;;;;;5104212;28;20065;-46
2023/03/10 18:48:45;;;;;;;5.85;2.17;;;;;;;;;;5102929;28;20027;-46
2023/03/10 18:51:12;;;;;;;5.85;2.35;;;;;;;;;;5103637;28;20026;-45
2023/03/10 18:53:38;;;;;;;4.07;1.75;;;;;;;;;;5104220;28;20430;-45
2023/03/10 18:56:04;;;;;;;4.57;1.70;;;;;;;;;;5103218;28;20550;-46
2023/03/10 18:58:31;;;;;;;5.55;1.50;;;;;;;;;;5102468;28;20372;-46
2023/03/10 19:00:57;;;;;;;6.47;2.00;;;;;;;;;;5103850;28;20041;-46
2023/03/10 19:03:23;;;;;;;4.63;1.92;;;;;;;;;;5102416;28;20038;-45
2023/03/10 19:05:53;;;;;;;7.72;2.28;;;;;;;;;;5104969;28;20019;-45
2023/03/10 19:08:20;;;;;;;8.70;2.30;;;;;;;;;;5104262;28;20035;-47
2023/03/10 19:10:52;;;;;;;7.57;2.53;;;;;;;;;;5103060;28;20088;-46
2023/03/10 19:13:18;;;;;;;5.72;2.10;;;;;;;;;;5103939;28;20146;-46
2023/03/10 19:15:44;;;;;;;5.63;2.08;;;;;;;;;;5103728;28;20103;-45
2023/03/10 19:18:11;;;;;;;4.20;2.00;;;;;;;;;;5102949;28;20031;-45
2023/03/10 19:20:37;;;;;;;3.72;1.77;;;;;;;;;;5101788;28;20387;-48
2023/03/10 19:23:03;;;;;;;3.22;1.50;;;;;;;;;;5101536;28;20126;-45
2023/03/10 19:25:29;;;;;;;3.00;1.33;;;;;;;;;;5103341;28;20102;-46
2023/03/10 19:27:56;;;;;;;6.03;2.03;;;;;;;;;;5103168;28;20126;-45
2023/03/10 19:30:22;;;;;;;4.22;1.73;;;;;;;;;;5103280;28;20039;-46
2023/03/10 19:32:49;;;;;;;4.28;2.00;;;;;;;;;;5104522;28;20124;-45
2023/03/10 19:35:17;;;;;;;4.05;2.03;;;;;;;;;;5103938;28;20102;-45
2023/03/10 19:37:43;;;;;;;4.80;2.45;;;;;;;;;;5102758;28;20462;-46
2023/03/10 19:40:13;;;;;;;4.95;2.30;;;;;;;;;;5103545;28;20028;-45
2023/03/10 19:42:39;;;;;;;4.35;2.08;;;;;;;;;;5102639;28;20092;-44
2023/03/10 19:45:06;;;;;;;4.75;2.30;;;;;;;;;;5102176;28;20019;-44
2023/03/10 19:47:32;;;;;;;3.95;1.98;;;;;;;;;;5104350;28;20035;-45
2023/03/10 19:49:59;;;;;;;4.30;2.15;;;;;;;;;;5107524;28;20084;-46
2023/03/10 19:52:25;;;;;;;4.75;1.73;;;;;;;;;;5107876;28;20035;-46
2023/03/10 19:54:52;;;;;;;4.10;1.75;;;;;;;;;;5108868;28;20024;-46